首页
METAR-TAF:

METAR-TAF

机场 :

薩拉熱窩國際機場

塞拉耶佛, 波斯尼亚和黑塞哥维那

纬度: 43-49N, 经度: 018-20E, 海拔: 511米

当前天气观测

该预报发布于16分钟前的10:00 UTC
静风
温度 -1°C
湿度 100%
气压 1026 hPa
能見度: 1300
少量云层高于500英尺
阴天层高于3000英尺
轻雾

METAR: LQSA 191000Z 00000KT 1300 BR FEW005 OVC030 M01/M01 Q1026 NOSIG

时间: 11:16 (10:16 UTC)

预报

该预报发布于5小时和16分钟前的05:00 UTC
预报有效从19日的 06点(UTC)到 20日的 06点(UTC)
风速2节,风向多变
能見度: 2000
散云层高于500英尺
多云层高于1800英尺
阴天层高于3000英尺
小雪, 轻雾
短暂存在
从 19日的 07点(UTC)到 19日的 10点(UTC)
能見度: 1000
多云层高于1000英尺
阴天层高于2500英尺
成为
从 19日的 11点(UTC)到 19日的 14点(UTC)
能見度: 6000
几率 40%
从 19日的 20点(UTC)到 20日的 06点(UTC)
能見度: 3000
轻雾

TAF: LQSA 190500Z 1906/2006 VRB02KT 2000 -SN BR SCT005 BKN018 OVC030 TX02/1913Z TNM04/2006Z TEMPO 1907/1910 1000 SN BKN010 OVC025 BECMG 1911/1914 6000 NSW PROB40 1920/2006 3000 BR

超过4000个机场的气象观测和天气预报(METAR&TAF报告)。

可查询的气象台以黄色和红色小点在地图上表示。

将鼠标移到小点上方,可查看气象台名称。

然后点击查看天气观测和预报。

如需切换地图:点击带黑十字的绿色按钮放大地图;点击带横线的绿色按钮缩小地图;或者点击绿色箭头查看邻近地区的地图。


METAR-TAF: